sensor_id;sensor_type;location;lat;lon;timestamp;P1;durP1;ratioP1;P2;durP2;ratioP2
68947;SDS011;55996;49.546;7.400;2022-08-27T00:02:22;20.13;;;18.27;;
68947;SDS011;55996;49.546;7.400;2022-08-27T00:04:48;20.37;;;18.43;;
68947;SDS011;55996;49.546;7.400;2022-08-27T00:07:14;19.67;;;17.87;;
68947;SDS011;55996;49.546;7.400;2022-08-27T00:09:40;19.17;;;17.47;;
68947;SDS011;55996;49.546;7.400;2022-08-27T00:12:07;19.97;;;18.00;;
68947;SDS011;55996;49.546;7.400;2022-08-27T00:14:33;20.00;;;17.90;;
68947;SDS011;55996;49.546;7.400;2022-08-27T00:16:59;19.57;;;17.60;;
68947;SDS011;55996;49.546;7.400;2022-08-27T00:19:25;18.87;;;16.93;;
68947;SDS011;55996;49.546;7.400;2022-08-27T00:21:50;17.97;;;16.33;;
68947;SDS011;55996;49.546;7.400;2022-08-27T00:24:16;19.97;;;17.83;;
68947;SDS011;55996;49.546;7.400;2022-08-27T00:26:41;20.00;;;18.10;;
68947;SDS011;55996;49.546;7.400;2022-08-27T00:29:08;19.83;;;17.83;;
68947;SDS011;55996;49.546;7.400;2022-08-27T00:31:34;19.20;;;17.43;;
68947;SDS011;55996;49.546;7.400;2022-08-27T00:33:59;19.57;;;17.67;;
68947;SDS011;55996;49.546;7.400;2022-08-27T00:36:26;18.43;;;16.73;;
68947;SDS011;55996;49.546;7.400;2022-08-27T00:38:51;19.80;;;18.00;;
68947;SDS011;55996;49.546;7.400;2022-08-27T00:41:17;20.03;;;17.40;;
68947;SDS011;55996;49.546;7.400;2022-08-27T00:43:48;19.77;;;17.33;;
68947;SDS011;55996;49.546;7.400;2022-08-27T00:46:21;20.77;;;18.70;;
68947;SDS011;55996;49.546;7.400;2022-08-27T00:48:48;19.03;;;17.43;;
68947;SDS011;55996;49.546;7.400;2022-08-27T00:51:16;20.60;;;17.77;;
68947;SDS011;55996;49.546;7.400;2022-08-27T00:53:42;20.03;;;17.57;;
68947;SDS011;55996;49.546;7.400;2022-08-27T00:56:13;18.73;;;16.83;;
68947;SDS011;55996;49.546;7.400;2022-08-27T00:58:44;19.17;;;17.37;;
68947;SDS011;55996;49.546;7.400;2022-08-27T01:01:19;19.63;;;17.80;;
68947;SDS011;55996;49.546;7.400;2022-08-27T01:03:47;19.80;;;17.80;;
68947;SDS011;55996;49.546;7.400;2022-08-27T01:06:16;20.43;;;18.47;;
68947;SDS011;55996;49.546;7.400;2022-08-27T01:08:47;18.10;;;16.47;;
68947;SDS011;55996;49.546;7.400;2022-08-27T01:11:17;19.73;;;17.83;;
68947;SDS011;55996;49.546;7.400;2022-08-27T01:13:43;20.33;;;18.60;;
68947;SDS011;55996;49.546;7.400;2022-08-27T01:16:09;19.53;;;17.67;;
68947;SDS011;55996;49.546;7.400;2022-08-27T01:18:36;20.43;;;18.47;;
68947;SDS011;55996;49.546;7.400;2022-08-27T01:21:20;20.20;;;18.20;;
68947;SDS011;55996;49.546;7.400;2022-08-27T01:23:55;18.90;;;17.20;;
68947;SDS011;55996;49.546;7.400;2022-08-27T01:26:25;19.67;;;17.57;;
68947;SDS011;55996;49.546;7.400;2022-08-27T01:28:53;20.43;;;18.63;;
68947;SDS011;55996;49.546;7.400;2022-08-27T01:31:18;19.83;;;18.07;;
68947;SDS011;55996;49.546;7.400;2022-08-27T01:33:54;21.13;;;19.20;;
68947;SDS011;55996;49.546;7.400;2022-08-27T01:36:22;20.63;;;18.67;;
68947;SDS011;55996;49.546;7.400;2022-08-27T01:38:48;20.00;;;18.30;;
68947;SDS011;55996;49.546;7.400;2022-08-27T01:41:14;20.47;;;18.37;;
68947;SDS011;55996;49.546;7.400;2022-08-27T01:43:39;21.80;;;19.57;;
68947;SDS011;55996;49.546;7.400;2022-08-27T01:46:05;21.70;;;19.80;;
68947;SDS011;55996;49.546;7.400;2022-08-27T01:48:30;22.30;;;20.27;;
68947;SDS011;55996;49.546;7.400;2022-08-27T01:50:56;21.73;;;19.83;;
68947;SDS011;55996;49.546;7.400;2022-08-27T01:53:22;23.07;;;20.87;;
68947;SDS011;55996;49.546;7.400;2022-08-27T01:55:49;22.17;;;20.17;;
68947;SDS011;55996;49.546;7.400;2022-08-27T01:58:17;20.93;;;19.17;;
68947;SDS011;55996;49.546;7.400;2022-08-27T02:00:49;21.47;;;19.50;;
68947;SDS011;55996;49.546;7.400;2022-08-27T02:03:18;22.43;;;20.43;;
68947;SDS011;55996;49.546;7.400;2022-08-27T02:05:45;21.57;;;19.67;;
68947;SDS011;55996;49.546;7.400;2022-08-27T02:08:13;21.83;;;19.93;;
68947;SDS011;55996;49.546;7.400;2022-08-27T02:10:40;22.27;;;20.27;;
68947;SDS011;55996;49.546;7.400;2022-08-27T02:13:07;23.07;;;20.87;;
68947;SDS011;55996;49.546;7.400;2022-08-27T02:15:34;22.10;;;19.93;;
68947;SDS011;55996;49.546;7.400;2022-08-27T02:18:01;22.47;;;20.47;;
68947;SDS011;55996;49.546;7.400;2022-08-27T02:20:27;21.57;;;19.77;;
68947;SDS011;55996;49.546;7.400;2022-08-27T02:22:53;22.90;;;20.90;;
68947;SDS011;55996;49.546;7.400;2022-08-27T02:25:20;23.30;;;21.10;;
68947;SDS011;55996;49.546;7.400;2022-08-27T02:27:47;23.83;;;21.63;;
68947;SDS011;55996;49.546;7.400;2022-08-27T02:30:14;22.53;;;20.43;;
68947;SDS011;55996;49.546;7.400;2022-08-27T02:32:44;21.83;;;19.93;;
68947;SDS011;55996;49.546;7.400;2022-08-27T02:35:11;22.43;;;20.43;;
68947;SDS011;55996;49.546;7.400;2022-08-27T02:37:38;23.23;;;21.00;;
68947;SDS011;55996;49.546;7.400;2022-08-27T02:40:04;23.27;;;21.07;;
68947;SDS011;55996;49.546;7.400;2022-08-27T02:42:30;23.37;;;21.03;;
68947;SDS011;55996;49.546;7.400;2022-08-27T02:44:56;23.23;;;21.13;;
68947;SDS011;55996;49.546;7.400;2022-08-27T02:47:22;23.97;;;21.60;;
68947;SDS011;55996;49.546;7.400;2022-08-27T02:49:47;24.53;;;22.33;;
68947;SDS011;55996;49.546;7.400;2022-08-27T02:52:13;24.67;;;22.27;;
68947;SDS011;55996;49.546;7.400;2022-08-27T02:54:40;23.70;;;21.40;;
68947;SDS011;55996;49.546;7.400;2022-08-27T02:57:06;23.77;;;21.57;;
68947;SDS011;55996;49.546;7.400;2022-08-27T02:59:31;25.23;;;22.53;;
68947;SDS011;55996;49.546;7.400;2022-08-27T03:01:57;26.37;;;23.57;;
68947;SDS011;55996;49.546;7.400;2022-08-27T03:04:22;34.13;;;27.00;;
68947;SDS011;55996;49.546;7.400;2022-08-27T03:06:48;30.87;;;23.97;;
68947;SDS011;55996;49.546;7.400;2022-08-27T03:09:14;34.53;;;23.20;;
68947;SDS011;55996;49.546;7.400;2022-08-27T03:11:39;49.83;;;23.87;;
68947;SDS011;55996;49.546;7.400;2022-08-27T03:14:05;73.23;;;27.03;;
68947;SDS011;55996;49.546;7.400;2022-08-27T03:16:35;39.10;;;27.17;;
68947;SDS011;55996;49.546;7.400;2022-08-27T03:19:01;59.67;;;32.03;;
68947;SDS011;55996;49.546;7.400;2022-08-27T03:21:30;52.47;;;34.20;;
68947;SDS011;55996;49.546;7.400;2022-08-27T03:23:56;49.77;;;34.50;;
68947;SDS011;55996;49.546;7.400;2022-08-27T03:26:22;58.27;;;37.30;;
68947;SDS011;55996;49.546;7.400;2022-08-27T03:28:47;52.87;;;35.17;;
68947;SDS011;55996;49.546;7.400;2022-08-27T03:31:14;50.17;;;34.73;;
68947;SDS011;55996;49.546;7.400;2022-08-27T03:33:46;38.70;;;28.20;;
68947;SDS011;55996;49.546;7.400;2022-08-27T03:36:12;29.23;;;24.53;;
68947;SDS011;55996;49.546;7.400;2022-08-27T03:38:37;21.23;;;18.20;;
68947;SDS011;55996;49.546;7.400;2022-08-27T03:41:04;19.57;;;17.47;;
68947;SDS011;55996;49.546;7.400;2022-08-27T03:43:30;20.13;;;17.83;;
68947;SDS011;55996;49.546;7.400;2022-08-27T03:45:56;19.47;;;17.03;;
68947;SDS011;55996;49.546;7.400;2022-08-27T03:48:21;21.30;;;17.47;;
68947;SDS011;55996;49.546;7.400;2022-08-27T03:50:48;18.10;;;16.27;;
68947;SDS011;55996;49.546;7.400;2022-08-27T03:53:15;23.40;;;19.10;;
68947;SDS011;55996;49.546;7.400;2022-08-27T03:55:44;24.27;;;20.83;;
68947;SDS011;55996;49.546;7.400;2022-08-27T03:58:10;26.20;;;20.60;;
68947;SDS011;55996;49.546;7.400;2022-08-27T04:00:37;25.93;;;20.80;;
68947;SDS011;55996;49.546;7.400;2022-08-27T04:03:03;27.90;;;21.80;;
68947;SDS011;55996;49.546;7.400;2022-08-27T04:05:30;24.93;;;20.87;;
68947;SDS011;55996;49.546;7.400;2022-08-27T04:07:56;24.97;;;20.97;;
68947;SDS011;55996;49.546;7.400;2022-08-27T04:10:21;26.97;;;22.63;;
68947;SDS011;55996;49.546;7.400;2022-08-27T04:12:47;32.70;;;25.93;;
68947;SDS011;55996;49.546;7.400;2022-08-27T04:15:12;26.30;;;22.10;;
68947;SDS011;55996;49.546;7.400;2022-08-27T04:17:38;23.80;;;20.60;;
68947;SDS011;55996;49.546;7.400;2022-08-27T04:20:04;25.47;;;20.83;;
68947;SDS011;55996;49.546;7.400;2022-08-27T04:22:31;19.37;;;17.30;;
68947;SDS011;55996;49.546;7.400;2022-08-27T04:24:57;18.13;;;15.53;;
68947;SDS011;55996;49.546;7.400;2022-08-27T04:27:23;17.20;;;15.37;;
68947;SDS011;55996;49.546;7.400;2022-08-27T04:29:53;21.00;;;18.50;;
68947;SDS011;55996;49.546;7.400;2022-08-27T04:32:23;20.57;;;18.37;;
68947;SDS011;55996;49.546;7.400;2022-08-27T04:34:56;22.00;;;19.70;;
68947;SDS011;55996;49.546;7.400;2022-08-27T04:37:23;24.43;;;20.33;;
68947;SDS011;55996;49.546;7.400;2022-08-27T04:39:50;26.53;;;22.17;;
68947;SDS011;55996;49.546;7.400;2022-08-27T04:42:17;26.63;;;21.33;;
68947;SDS011;55996;49.546;7.400;2022-08-27T04:44:44;26.60;;;22.67;;
68947;SDS011;55996;49.546;7.400;2022-08-27T04:47:10;27.77;;;22.63;;
68947;SDS011;55996;49.546;7.400;2022-08-27T04:49:36;32.27;;;24.00;;
68947;SDS011;55996;49.546;7.400;2022-08-27T04:52:02;31.77;;;24.60;;
68947;SDS011;55996;49.546;7.400;2022-08-27T04:54:28;31.73;;;24.73;;
68947;SDS011;55996;49.546;7.400;2022-08-27T04:56:53;29.77;;;24.10;;
68947;SDS011;55996;49.546;7.400;2022-08-27T04:59:19;33.23;;;24.83;;
68947;SDS011;55996;49.546;7.400;2022-08-27T05:01:45;35.37;;;26.47;;
68947;SDS011;55996;49.546;7.400;2022-08-27T05:04:12;35.33;;;27.57;;
68947;SDS011;55996;49.546;7.400;2022-08-27T05:06:39;32.03;;;26.23;;
68947;SDS011;55996;49.546;7.400;2022-08-27T05:09:06;38.77;;;28.57;;
68947;SDS011;55996;49.546;7.400;2022-08-27T05:11:32;35.30;;;27.57;;
68947;SDS011;55996;49.546;7.400;2022-08-27T05:14:02;34.00;;;27.07;;
68947;SDS011;55996;49.546;7.400;2022-08-27T05:16:29;34.90;;;26.87;;
68947;SDS011;55996;49.546;7.400;2022-08-27T05:18:56;41.90;;;30.73;;
68947;SDS011;55996;49.546;7.400;2022-08-27T05:21:24;42.07;;;30.60;;
68947;SDS011;55996;49.546;7.400;2022-08-27T05:23:52;48.47;;;32.73;;
68947;SDS011;55996;49.546;7.400;2022-08-27T05:26:19;46.77;;;32.63;;
68947;SDS011;55996;49.546;7.400;2022-08-27T05:28:45;42.73;;;31.10;;
68947;SDS011;55996;49.546;7.400;2022-08-27T05:31:12;46.63;;;30.90;;
68947;SDS011;55996;49.546;7.400;2022-08-27T05:33:38;46.97;;;31.97;;
68947;SDS011;55996;49.546;7.400;2022-08-27T05:36:06;44.43;;;32.37;;
68947;SDS011;55996;49.546;7.400;2022-08-27T05:38:38;51.63;;;34.20;;
68947;SDS011;55996;49.546;7.400;2022-08-27T05:41:08;57.97;;;35.43;;
68947;SDS011;55996;49.546;7.400;2022-08-27T05:43:36;61.47;;;37.27;;
68947;SDS011;55996;49.546;7.400;2022-08-27T05:46:05;66.77;;;38.90;;
68947;SDS011;55996;49.546;7.400;2022-08-27T05:48:36;62.10;;;38.07;;
68947;SDS011;55996;49.546;7.400;2022-08-27T05:51:17;53.60;;;34.87;;
68947;SDS011;55996;49.546;7.400;2022-08-27T05:53:45;60.37;;;37.33;;
68947;SDS011;55996;49.546;7.400;2022-08-27T05:56:12;61.17;;;38.10;;
68947;SDS011;55996;49.546;7.400;2022-08-27T05:58:39;76.27;;;42.87;;
68947;SDS011;55996;49.546;7.400;2022-08-27T06:01:23;68.80;;;40.10;;
68947;SDS011;55996;49.546;7.400;2022-08-27T06:03:49;71.97;;;40.97;;
68947;SDS011;55996;49.546;7.400;2022-08-27T06:06:17;80.43;;;44.53;;
68947;SDS011;55996;49.546;7.400;2022-08-27T06:08:43;71.97;;;42.27;;
68947;SDS011;55996;49.546;7.400;2022-08-27T06:11:08;82.50;;;47.10;;
68947;SDS011;55996;49.546;7.400;2022-08-27T06:13:35;83.33;;;47.80;;
68947;SDS011;55996;49.546;7.400;2022-08-27T06:16:09;84.60;;;49.47;;
68947;SDS011;55996;49.546;7.400;2022-08-27T06:18:38;72.27;;;44.97;;
68947;SDS011;55996;49.546;7.400;2022-08-27T06:21:05;62.30;;;42.13;;
68947;SDS011;55996;49.546;7.400;2022-08-27T06:23:31;65.17;;;42.47;;
68947;SDS011;55996;49.546;7.400;2022-08-27T06:25:57;78.50;;;46.27;;
68947;SDS011;55996;49.546;7.400;2022-08-27T06:28:24;73.73;;;46.00;;
68947;SDS011;55996;49.546;7.400;2022-08-27T06:31:00;80.13;;;46.47;;
68947;SDS011;55996;49.546;7.400;2022-08-27T06:33:29;76.87;;;48.13;;
68947;SDS011;55996;49.546;7.400;2022-08-27T06:36:02;85.33;;;48.87;;
68947;SDS011;55996;49.546;7.400;2022-08-27T06:38:29;90.23;;;50.33;;
68947;SDS011;55996;49.546;7.400;2022-08-27T06:40:55;87.80;;;50.33;;
68947;SDS011;55996;49.546;7.400;2022-08-27T06:43:21;91.00;;;48.90;;
68947;SDS011;55996;49.546;7.400;2022-08-27T06:45:47;86.83;;;49.27;;
68947;SDS011;55996;49.546;7.400;2022-08-27T06:48:13;82.10;;;47.63;;
68947;SDS011;55996;49.546;7.400;2022-08-27T06:50:39;93.57;;;49.40;;
68947;SDS011;55996;49.546;7.400;2022-08-27T06:53:05;107.37;;;51.80;;
68947;SDS011;55996;49.546;7.400;2022-08-27T06:55:31;82.60;;;47.40;;
68947;SDS011;55996;49.546;7.400;2022-08-27T06:57:57;75.77;;;46.20;;
68947;SDS011;55996;49.546;7.400;2022-08-27T07:00:22;78.77;;;45.13;;
68947;SDS011;55996;49.546;7.400;2022-08-27T07:02:49;81.07;;;45.60;;
68947;SDS011;55996;49.546;7.400;2022-08-27T07:05:15;73.70;;;44.40;;
68947;SDS011;55996;49.546;7.400;2022-08-27T07:07:40;59.20;;;38.57;;
68947;SDS011;55996;49.546;7.400;2022-08-27T07:10:06;54.27;;;37.87;;
68947;SDS011;55996;49.546;7.400;2022-08-27T07:12:32;46.77;;;35.27;;
68947;SDS011;55996;49.546;7.400;2022-08-27T07:14:57;50.33;;;36.03;;
68947;SDS011;55996;49.546;7.400;2022-08-27T07:17:23;49.03;;;35.57;;
68947;SDS011;55996;49.546;7.400;2022-08-27T07:19:48;58.70;;;38.77;;
68947;SDS011;55996;49.546;7.400;2022-08-27T07:22:13;55.73;;;37.63;;
68947;SDS011;55996;49.546;7.400;2022-08-27T07:24:39;53.27;;;36.13;;
68947;SDS011;55996;49.546;7.400;2022-08-27T07:27:05;52.57;;;37.10;;
68947;SDS011;55996;49.546;7.400;2022-08-27T07:29:31;54.77;;;37.80;;
68947;SDS011;55996;49.546;7.400;2022-08-27T07:31:57;52.73;;;37.10;;
68947;SDS011;55996;49.546;7.400;2022-08-27T07:34:22;49.53;;;36.43;;
68947;SDS011;55996;49.546;7.400;2022-08-27T07:36:48;46.67;;;34.53;;
68947;SDS011;55996;49.546;7.400;2022-08-27T07:39:15;45.17;;;34.47;;
68947;SDS011;55996;49.546;7.400;2022-08-27T07:41:41;43.67;;;33.60;;
68947;SDS011;55996;49.546;7.400;2022-08-27T07:44:25;42.40;;;33.27;;
68947;SDS011;55996;49.546;7.400;2022-08-27T07:46:54;50.40;;;36.37;;
68947;SDS011;55996;49.546;7.400;2022-08-27T07:49:22;43.90;;;32.73;;
68947;SDS011;55996;49.546;7.400;2022-08-27T07:51:48;37.57;;;29.90;;
68947;SDS011;55996;49.546;7.400;2022-08-27T07:54:15;38.17;;;29.27;;
68947;SDS011;55996;49.546;7.400;2022-08-27T07:56:41;33.77;;;27.73;;
68947;SDS011;55996;49.546;7.400;2022-08-27T07:59:07;29.97;;;25.57;;
68947;SDS011;55996;49.546;7.400;2022-08-27T08:01:33;35.87;;;27.67;;
68947;SDS011;55996;49.546;7.400;2022-08-27T08:03:59;30.40;;;25.50;;
68947;SDS011;55996;49.546;7.400;2022-08-27T08:06:24;30.37;;;24.67;;
68947;SDS011;55996;49.546;7.400;2022-08-27T08:08:50;29.90;;;25.60;;
68947;SDS011;55996;49.546;7.400;2022-08-27T08:11:16;32.47;;;26.80;;
68947;SDS011;55996;49.546;7.400;2022-08-27T08:13:43;27.30;;;23.40;;
68947;SDS011;55996;49.546;7.400;2022-08-27T08:16:09;29.17;;;23.80;;
68947;SDS011;55996;49.546;7.400;2022-08-27T08:18:35;28.67;;;23.27;;
68947;SDS011;55996;49.546;7.400;2022-08-27T08:21:03;30.33;;;24.27;;
68947;SDS011;55996;49.546;7.400;2022-08-27T08:23:31;26.37;;;23.43;;
68947;SDS011;55996;49.546;7.400;2022-08-27T08:25:58;28.07;;;22.93;;
68947;SDS011;55996;49.546;7.400;2022-08-27T08:28:24;28.53;;;24.67;;
68947;SDS011;55996;49.546;7.400;2022-08-27T08:30:53;30.57;;;25.37;;
68947;SDS011;55996;49.546;7.400;2022-08-27T08:33:19;27.07;;;23.17;;
68947;SDS011;55996;49.546;7.400;2022-08-27T08:35:45;28.50;;;23.77;;
68947;SDS011;55996;49.546;7.400;2022-08-27T08:38:12;25.90;;;21.17;;
68947;SDS011;55996;49.546;7.400;2022-08-27T08:40:40;23.57;;;21.07;;
68947;SDS011;55996;49.546;7.400;2022-08-27T08:43:09;23.13;;;20.43;;
68947;SDS011;55996;49.546;7.400;2022-08-27T08:45:45;22.97;;;20.47;;
68947;SDS011;55996;49.546;7.400;2022-08-27T08:48:13;22.93;;;19.63;;
68947;SDS011;55996;49.546;7.400;2022-08-27T08:50:48;21.40;;;18.43;;
68947;SDS011;55996;49.546;7.400;2022-08-27T08:56:10;23.87;;;18.90;;
68947;SDS011;55996;49.546;7.400;2022-08-27T08:58:43;20.50;;;17.80;;
68947;SDS011;55996;49.546;7.400;2022-08-27T09:01:17;20.37;;;17.97;;
68947;SDS011;55996;49.546;7.400;2022-08-27T09:03:57;20.77;;;17.53;;
68947;SDS011;55996;49.546;7.400;2022-08-27T09:06:29;23.30;;;17.67;;
68947;SDS011;55996;49.546;7.400;2022-08-27T09:09:25;18.20;;;16.33;;
68947;SDS011;55996;49.546;7.400;2022-08-27T09:11:59;15.90;;;14.27;;
68947;SDS011;55996;49.546;7.400;2022-08-27T09:17:07;16.67;;;14.87;;
68947;SDS011;55996;49.546;7.400;2022-08-27T09:19:33;15.27;;;13.67;;
68947;SDS011;55996;49.546;7.400;2022-08-27T09:22:06;17.87;;;15.97;;
68947;SDS011;55996;49.546;7.400;2022-08-27T09:27:35;14.20;;;12.80;;
68947;SDS011;55996;49.546;7.400;2022-08-27T09:30:28;16.08;;;14.38;;
68947;SDS011;55996;49.546;7.400;2022-08-27T09:32:57;16.70;;;14.50;;
68947;SDS011;55996;49.546;7.400;2022-08-27T09:35:25;17.10;;;15.10;;
68947;SDS011;55996;49.546;7.400;2022-08-27T09:38:00;17.87;;;15.20;;
68947;SDS011;55996;49.546;7.400;2022-08-27T09:40:28;15.67;;;13.97;;
68947;SDS011;55996;49.546;7.400;2022-08-27T09:42:57;18.92;;;16.08;;
68947;SDS011;55996;49.546;7.400;2022-08-27T09:45:46;17.17;;;14.88;;
68947;SDS011;55996;49.546;7.400;2022-08-27T09:48:18;16.25;;;14.65;;
68947;SDS011;55996;49.546;7.400;2022-08-27T09:50:47;14.70;;;12.50;;
68947;SDS011;55996;49.546;7.400;2022-08-27T10:01:47;15.98;;;13.90;;
68947;SDS011;55996;49.546;7.400;2022-08-27T10:04:26;12.47;;;11.17;;
68947;SDS011;55996;49.546;7.400;2022-08-27T10:07:09;14.20;;;12.70;;
68947;SDS011;55996;49.546;7.400;2022-08-27T10:10:29;14.50;;;13.00;;
68947;SDS011;55996;49.546;7.400;2022-08-27T10:12:58;16.03;;;13.73;;
68947;SDS011;55996;49.546;7.400;2022-08-27T10:15:32;13.80;;;12.03;;
68947;SDS011;55996;49.546;7.400;2022-08-27T10:23:32;14.20;;;12.33;;
68947;SDS011;55996;49.546;7.400;2022-08-27T10:26:26;13.80;;;12.50;;
68947;SDS011;55996;49.546;7.400;2022-08-27T10:29:02;14.77;;;12.83;;
68947;SDS011;55996;49.546;7.400;2022-08-27T10:31:44;12.70;;;11.43;;
68947;SDS011;55996;49.546;7.400;2022-08-27T10:37:21;14.93;;;13.43;;
68947;SDS011;55996;49.546;7.400;2022-08-27T10:45:37;13.73;;;12.43;;
68947;SDS011;55996;49.546;7.400;2022-08-27T10:50:45;14.45;;;13.00;;
68947;SDS011;55996;49.546;7.400;2022-08-27T10:53:29;12.27;;;10.98;;
68947;SDS011;55996;49.546;7.400;2022-08-27T10:59:23;13.37;;;12.07;;
68947;SDS011;55996;49.546;7.400;2022-08-27T11:05:01;11.82;;;10.73;;
68947;SDS011;55996;49.546;7.400;2022-08-27T11:07:39;14.15;;;12.38;;
68947;SDS011;55996;49.546;7.400;2022-08-27T11:10:17;13.23;;;11.35;;
68947;SDS011;55996;49.546;7.400;2022-08-27T11:13:05;14.02;;;12.57;;
68947;SDS011;55996;49.546;7.400;2022-08-27T11:15:35;14.25;;;12.77;;
68947;SDS011;55996;49.546;7.400;2022-08-27T11:18:19;13.38;;;10.88;;
68947;SDS011;55996;49.546;7.400;2022-08-27T11:26:35;16.75;;;15.15;;
68947;SDS011;55996;49.546;7.400;2022-08-27T11:29:07;14.60;;;13.20;;
68947;SDS011;55996;49.546;7.400;2022-08-27T11:31:44;0.57;;;0.57;;
68947;SDS011;55996;49.546;7.400;2022-08-27T11:34:18;0.10;;;0.10;;
68947;SDS011;55996;49.546;7.400;2022-08-27T11:37:28;0.52;;;0.52;;
68947;SDS011;55996;49.546;7.400;2022-08-27T11:42:35;0.10;;;0.10;;
68947;SDS011;55996;49.546;7.400;2022-08-27T11:45:06;0.15;;;0.15;;
68947;SDS011;55996;49.546;7.400;2022-08-27T11:47:50;0.10;;;0.10;;
68947;SDS011;55996;49.546;7.400;2022-08-27T11:50:26;0.10;;;0.10;;
68947;SDS011;55996;49.546;7.400;2022-08-27T11:52:58;0.20;;;0.20;;
68947;SDS011;55996;49.546;7.400;2022-08-27T11:58:08;0.00;;;0.00;;
68947;SDS011;55996;49.546;7.400;2022-08-27T12:00:43;0.15;;;0.15;;
68947;SDS011;55996;49.546;7.400;2022-08-27T12:08:33;0.13;;;0.13;;
68947;SDS011;55996;49.546;7.400;2022-08-27T12:26:54;0.10;;;0.10;;
68947;SDS011;55996;49.546;7.400;2022-08-27T12:29:33;0.00;;;0.00;;
68947;SDS011;55996;49.546;7.400;2022-08-27T12:32:49;0.30;;;0.30;;
68947;SDS011;55996;49.546;7.400;2022-08-27T12:35:05;0.57;;;0.57;;
68947;SDS011;55996;49.546;7.400;2022-08-27T12:37:36;0.00;;;0.00;;
68947;SDS011;55996;49.546;7.400;2022-08-27T12:40:11;0.00;;;0.00;;
68947;SDS011;55996;49.546;7.400;2022-08-27T12:42:42;0.00;;;0.00;;
68947;SDS011;55996;49.546;7.400;2022-08-27T12:45:15;25.15;;;2.72;;
68947;SDS011;55996;49.546;7.400;2022-08-27T12:47:43;0.20;;;0.20;;
68947;SDS011;55996;49.546;7.400;2022-08-27T12:50:09;0.10;;;0.10;;
68947;SDS011;55996;49.546;7.400;2022-08-27T12:55:26;0.00;;;0.00;;
68947;SDS011;55996;49.546;7.400;2022-08-27T13:00:37;0.08;;;0.08;;
68947;SDS011;55996;49.546;7.400;2022-08-27T13:03:42;0.08;;;0.08;;
68947;SDS011;55996;49.546;7.400;2022-08-27T13:06:19;0.00;;;0.00;;
68947;SDS011;55996;49.546;7.400;2022-08-27T13:08:57;0.80;;;0.80;;
68947;SDS011;55996;49.546;7.400;2022-08-27T13:11:26;0.00;;;0.00;;
68947;SDS011;55996;49.546;7.400;2022-08-27T13:14:11;0.00;;;0.00;;
68947;SDS011;55996;49.546;7.400;2022-08-27T13:16:42;0.08;;;0.08;;
68947;SDS011;55996;49.546;7.400;2022-08-27T13:19:17;0.00;;;0.00;;
68947;SDS011;55996;49.546;7.400;2022-08-27T13:21:51;0.10;;;0.10;;
68947;SDS011;55996;49.546;7.400;2022-08-27T13:24:30;0.00;;;0.00;;
68947;SDS011;55996;49.546;7.400;2022-08-27T13:27:04;0.00;;;0.00;;
68947;SDS011;55996;49.546;7.400;2022-08-27T13:29:30;0.00;;;0.00;;
68947;SDS011;55996;49.546;7.400;2022-08-27T13:31:57;0.00;;;0.00;;
68947;SDS011;55996;49.546;7.400;2022-08-27T13:34:25;0.00;;;0.00;;
68947;SDS011;55996;49.546;7.400;2022-08-27T13:39:31;0.22;;;0.22;;
68947;SDS011;55996;49.546;7.400;2022-08-27T13:42:02;0.35;;;0.35;;
68947;SDS011;55996;49.546;7.400;2022-08-27T13:44:31;0.10;;;0.10;;
68947;SDS011;55996;49.546;7.400;2022-08-27T13:47:00;0.20;;;0.20;;
68947;SDS011;55996;49.546;7.400;2022-08-27T13:49:47;0.15;;;0.15;;
68947;SDS011;55996;49.546;7.400;2022-08-27T13:52:32;0.10;;;0.10;;
68947;SDS011;55996;49.546;7.400;2022-08-27T13:55:09;0.00;;;0.00;;
68947;SDS011;55996;49.546;7.400;2022-08-27T14:00:24;0.00;;;0.00;;
68947;SDS011;55996;49.546;7.400;2022-08-27T14:02:58;0.00;;;0.00;;
68947;SDS011;55996;49.546;7.400;2022-08-27T14:08:01;0.00;;;0.00;;
68947;SDS011;55996;49.546;7.400;2022-08-27T14:10:37;0.00;;;0.00;;
68947;SDS011;55996;49.546;7.400;2022-08-27T14:15:50;0.00;;;0.00;;
68947;SDS011;55996;49.546;7.400;2022-08-27T14:20:51;0.10;;;0.10;;
68947;SDS011;55996;49.546;7.400;2022-08-27T14:23:18;0.30;;;0.30;;
68947;SDS011;55996;49.546;7.400;2022-08-27T14:25:45;0.00;;;0.00;;
68947;SDS011;55996;49.546;7.400;2022-08-27T14:28:11;0.00;;;0.00;;
68947;SDS011;55996;49.546;7.400;2022-08-27T14:30:37;0.00;;;0.00;;
68947;SDS011;55996;49.546;7.400;2022-08-27T14:33:02;0.00;;;0.00;;
68947;SDS011;55996;49.546;7.400;2022-08-27T14:35:28;0.00;;;0.00;;
68947;SDS011;55996;49.546;7.400;2022-08-27T14:37:56;0.00;;;0.00;;
68947;SDS011;55996;49.546;7.400;2022-08-27T14:40:24;0.00;;;0.00;;
68947;SDS011;55996;49.546;7.400;2022-08-27T14:42:50;0.00;;;0.00;;
68947;SDS011;55996;49.546;7.400;2022-08-27T14:45:15;0.00;;;0.00;;
68947;SDS011;55996;49.546;7.400;2022-08-27T14:47:41;0.00;;;0.00;;
68947;SDS011;55996;49.546;7.400;2022-08-27T14:50:08;0.10;;;0.10;;
68947;SDS011;55996;49.546;7.400;2022-08-27T14:52:35;0.00;;;0.00;;
68947;SDS011;55996;49.546;7.400;2022-08-27T14:55:03;0.10;;;0.10;;
68947;SDS011;55996;49.546;7.400;2022-08-27T14:57:30;0.00;;;0.00;;
68947;SDS011;55996;49.546;7.400;2022-08-27T14:59:56;0.00;;;0.00;;
68947;SDS011;55996;49.546;7.400;2022-08-27T15:02:21;0.07;;;0.07;;
68947;SDS011;55996;49.546;7.400;2022-08-27T15:04:47;0.00;;;0.00;;
68947;SDS011;55996;49.546;7.400;2022-08-27T15:07:13;0.00;;;0.00;;
68947;SDS011;55996;49.546;7.400;2022-08-27T15:09:38;0.00;;;0.00;;
68947;SDS011;55996;49.546;7.400;2022-08-27T15:12:04;0.00;;;0.00;;
68947;SDS011;55996;49.546;7.400;2022-08-27T15:14:31;0.00;;;0.00;;
68947;SDS011;55996;49.546;7.400;2022-08-27T15:16:58;0.00;;;0.00;;
68947;SDS011;55996;49.546;7.400;2022-08-27T15:19:24;0.00;;;0.00;;
68947;SDS011;55996;49.546;7.400;2022-08-27T15:21:51;0.00;;;0.00;;
68947;SDS011;55996;49.546;7.400;2022-08-27T15:24:29;0.00;;;0.00;;
68947;SDS011;55996;49.546;7.400;2022-08-27T15:27:03;0.00;;;0.00;;
68947;SDS011;55996;49.546;7.400;2022-08-27T15:29:28;0.00;;;0.00;;
68947;SDS011;55996;49.546;7.400;2022-08-27T15:31:54;0.00;;;0.00;;
68947;SDS011;55996;49.546;7.400;2022-08-27T15:34:19;0.00;;;0.00;;
68947;SDS011;55996;49.546;7.400;2022-08-27T15:36:45;0.00;;;0.00;;
68947;SDS011;55996;49.546;7.400;2022-08-27T15:39:11;0.00;;;0.00;;
68947;SDS011;55996;49.546;7.400;2022-08-27T15:41:37;0.30;;;0.30;;
68947;SDS011;55996;49.546;7.400;2022-08-27T15:44:04;0.07;;;0.07;;
68947;SDS011;55996;49.546;7.400;2022-08-27T15:46:29;0.47;;;0.47;;
68947;SDS011;55996;49.546;7.400;2022-08-27T15:48:55;1.10;;;1.03;;
68947;SDS011;55996;49.546;7.400;2022-08-27T15:51:25;0.85;;;0.85;;
68947;SDS011;55996;49.546;7.400;2022-08-27T15:53:54;0.00;;;0.00;;
68947;SDS011;55996;49.546;7.400;2022-08-27T15:56:20;0.00;;;0.00;;
68947;SDS011;55996;49.546;7.400;2022-08-27T15:58:45;0.00;;;0.00;;
68947;SDS011;55996;49.546;7.400;2022-08-27T16:01:12;0.30;;;0.30;;
68947;SDS011;55996;49.546;7.400;2022-08-27T16:03:41;0.00;;;0.00;;
68947;SDS011;55996;49.546;7.400;2022-08-27T16:06:10;0.00;;;0.00;;
68947;SDS011;55996;49.546;7.400;2022-08-27T16:08:36;0.10;;;0.10;;
68947;SDS011;55996;49.546;7.400;2022-08-27T16:11:02;0.70;;;0.70;;
68947;SDS011;55996;49.546;7.400;2022-08-27T16:13:28;0.00;;;0.00;;